sensor_id;sensor_type;location;lat;lon;timestamp;temperature;humidity
3788;DHT22;1909;53.046;8.276;2022-10-28T00:01:16;15.70;99.90
3788;DHT22;1909;53.046;8.276;2022-10-28T00:03:44;15.70;99.90
3788;DHT22;1909;53.046;8.276;2022-10-28T00:06:13;15.70;99.90
3788;DHT22;1909;53.046;8.276;2022-10-28T00:08:42;15.70;99.90
3788;DHT22;1909;53.046;8.276;2022-10-28T00:11:10;15.80;99.90
3788;DHT22;1909;53.046;8.276;2022-10-28T00:13:38;15.70;99.90
3788;DHT22;1909;53.046;8.276;2022-10-28T00:16:07;15.60;99.90
3788;DHT22;1909;53.046;8.276;2022-10-28T00:18:34;15.70;99.90
3788;DHT22;1909;53.046;8.276;2022-10-28T00:21:02;15.70;99.90
3788;DHT22;1909;53.046;8.276;2022-10-28T00:23:29;15.60;99.90
3788;DHT22;1909;53.046;8.276;2022-10-28T00:26:05;15.60;99.90
3788;DHT22;1909;53.046;8.276;2022-10-28T00:28:31;15.60;99.90
3788;DHT22;1909;53.046;8.276;2022-10-28T00:31:03;15.60;99.90
3788;DHT22;1909;53.046;8.276;2022-10-28T00:33:30;15.70;99.90
3788;DHT22;1909;53.046;8.276;2022-10-28T00:36:05;15.70;99.90
3788;DHT22;1909;53.046;8.276;2022-10-28T00:38:32;15.70;99.90
3788;DHT22;1909;53.046;8.276;2022-10-28T00:40:59;15.70;99.90
3788;DHT22;1909;53.046;8.276;2022-10-28T00:43:38;15.70;99.90
3788;DHT22;1909;53.046;8.276;2022-10-28T00:46:12;15.70;99.90
3788;DHT22;1909;53.046;8.276;2022-10-28T00:48:42;15.70;99.90
3788;DHT22;1909;53.046;8.276;2022-10-28T00:51:10;15.60;99.90
3788;DHT22;1909;53.046;8.276;2022-10-28T00:53:41;15.60;99.90
3788;DHT22;1909;53.046;8.276;2022-10-28T00:56:09;15.60;99.90
3788;DHT22;1909;53.046;8.276;2022-10-28T00:58:38;15.60;99.90
3788;DHT22;1909;53.046;8.276;2022-10-28T01:01:05;15.60;99.90
3788;DHT22;1909;53.046;8.276;2022-10-28T01:03:32;15.60;99.90
3788;DHT22;1909;53.046;8.276;2022-10-28T01:06:00;15.60;99.90
3788;DHT22;1909;53.046;8.276;2022-10-28T01:08:27;15.60;99.90
3788;DHT22;1909;53.046;8.276;2022-10-28T01:11:07;15.60;99.90
3788;DHT22;1909;53.046;8.276;2022-10-28T01:13:47;15.50;99.90
3788;DHT22;1909;53.046;8.276;2022-10-28T01:16:25;15.50;99.90
3788;DHT22;1909;53.046;8.276;2022-10-28T01:19:05;15.50;99.90
3788;DHT22;1909;53.046;8.276;2022-10-28T01:21:59;15.50;99.90
3788;DHT22;1909;53.046;8.276;2022-10-28T01:24:45;15.40;99.90
3788;DHT22;1909;53.046;8.276;2022-10-28T01:27:30;15.40;99.90
3788;DHT22;1909;53.046;8.276;2022-10-28T01:30:09;15.40;99.90
3788;DHT22;1909;53.046;8.276;2022-10-28T01:32:47;15.40;99.90
3788;DHT22;1909;53.046;8.276;2022-10-28T01:35:20;15.30;99.90
3788;DHT22;1909;53.046;8.276;2022-10-28T01:38:00;15.40;99.90
3788;DHT22;1909;53.046;8.276;2022-10-28T01:40:35;15.30;99.90
3788;DHT22;1909;53.046;8.276;2022-10-28T01:43:09;15.20;99.90
3788;DHT22;1909;53.046;8.276;2022-10-28T01:45:40;15.20;99.90
3788;DHT22;1909;53.046;8.276;2022-10-28T01:48:12;15.20;99.90
3788;DHT22;1909;53.046;8.276;2022-10-28T01:50:47;15.30;99.90
3788;DHT22;1909;53.046;8.276;2022-10-28T01:53:21;15.20;99.90
3788;DHT22;1909;53.046;8.276;2022-10-28T01:55:52;15.20;99.90
3788;DHT22;1909;53.046;8.276;2022-10-28T01:58:24;15.20;99.90
3788;DHT22;1909;53.046;8.276;2022-10-28T02:00:52;15.20;99.90
3788;DHT22;1909;53.046;8.276;2022-10-28T02:03:21;15.20;99.90
3788;DHT22;1909;53.046;8.276;2022-10-28T02:05:51;15.30;99.90
3788;DHT22;1909;53.046;8.276;2022-10-28T02:08:27;15.30;99.90
3788;DHT22;1909;53.046;8.276;2022-10-28T02:11:05;15.20;99.90
3788;DHT22;1909;53.046;8.276;2022-10-28T02:13:41;15.20;99.90
3788;DHT22;1909;53.046;8.276;2022-10-28T02:16:17;15.20;99.90
3788;DHT22;1909;53.046;8.276;2022-10-28T02:18:55;15.20;99.90
3788;DHT22;1909;53.046;8.276;2022-10-28T02:21:36;15.20;99.90
3788;DHT22;1909;53.046;8.276;2022-10-28T02:24:12;15.20;99.90
3788;DHT22;1909;53.046;8.276;2022-10-28T02:26:45;15.20;99.90
3788;DHT22;1909;53.046;8.276;2022-10-28T02:29:15;15.20;99.90
3788;DHT22;1909;53.046;8.276;2022-10-28T02:31:46;15.10;99.90
3788;DHT22;1909;53.046;8.276;2022-10-28T02:34:18;15.20;99.90
3788;DHT22;1909;53.046;8.276;2022-10-28T02:36:49;15.10;99.90
3788;DHT22;1909;53.046;8.276;2022-10-28T02:39:21;15.20;99.90
3788;DHT22;1909;53.046;8.276;2022-10-28T02:41:52;15.20;99.90
3788;DHT22;1909;53.046;8.276;2022-10-28T02:44:24;15.20;99.90
3788;DHT22;1909;53.046;8.276;2022-10-28T02:46:53;15.20;99.90
3788;DHT22;1909;53.046;8.276;2022-10-28T02:49:24;15.10;99.90
3788;DHT22;1909;53.046;8.276;2022-10-28T02:51:54;15.10;99.90
3788;DHT22;1909;53.046;8.276;2022-10-28T02:54:26;15.20;99.90
3788;DHT22;1909;53.046;8.276;2022-10-28T02:56:57;15.20;99.90
3788;DHT22;1909;53.046;8.276;2022-10-28T02:59:25;15.10;99.90
3788;DHT22;1909;53.046;8.276;2022-10-28T03:01:52;15.10;99.90
3788;DHT22;1909;53.046;8.276;2022-10-28T03:04:18;15.10;99.90
3788;DHT22;1909;53.046;8.276;2022-10-28T03:06:46;15.20;99.90
3788;DHT22;1909;53.046;8.276;2022-10-28T03:09:13;15.10;99.90
3788;DHT22;1909;53.046;8.276;2022-10-28T03:11:40;15.10;99.90
3788;DHT22;1909;53.046;8.276;2022-10-28T03:14:06;15.10;99.90
3788;DHT22;1909;53.046;8.276;2022-10-28T03:16:33;15.10;99.90
3788;DHT22;1909;53.046;8.276;2022-10-28T03:19:00;15.10;99.90
3788;DHT22;1909;53.046;8.276;2022-10-28T03:21:26;15.10;99.90
3788;DHT22;1909;53.046;8.276;2022-10-28T03:23:54;15.10;99.90
3788;DHT22;1909;53.046;8.276;2022-10-28T03:26:21;15.10;99.90
3788;DHT22;1909;53.046;8.276;2022-10-28T03:28:48;15.10;99.90
3788;DHT22;1909;53.046;8.276;2022-10-28T03:31:15;15.10;99.90
3788;DHT22;1909;53.046;8.276;2022-10-28T03:33:41;15.10;99.90
3788;DHT22;1909;53.046;8.276;2022-10-28T03:36:08;15.10;99.90
3788;DHT22;1909;53.046;8.276;2022-10-28T03:38:35;15.10;99.90
3788;DHT22;1909;53.046;8.276;2022-10-28T03:41:03;15.10;99.90
3788;DHT22;1909;53.046;8.276;2022-10-28T03:43:30;15.10;99.90
3788;DHT22;1909;53.046;8.276;2022-10-28T03:45:56;15.10;99.90
3788;DHT22;1909;53.046;8.276;2022-10-28T03:48:23;15.10;99.90
3788;DHT22;1909;53.046;8.276;2022-10-28T03:50:51;15.10;99.90
3788;DHT22;1909;53.046;8.276;2022-10-28T03:53:18;15.10;99.90
3788;DHT22;1909;53.046;8.276;2022-10-28T03:55:50;15.10;99.90
3788;DHT22;1909;53.046;8.276;2022-10-28T03:58:19;15.10;99.90
3788;DHT22;1909;53.046;8.276;2022-10-28T04:00:46;15.00;99.90
3788;DHT22;1909;53.046;8.276;2022-10-28T04:03:13;15.10;99.90
3788;DHT22;1909;53.046;8.276;2022-10-28T04:05:40;15.10;99.90
3788;DHT22;1909;53.046;8.276;2022-10-28T04:08:06;15.00;99.90
3788;DHT22;1909;53.046;8.276;2022-10-28T04:10:33;15.00;99.90
3788;DHT22;1909;53.046;8.276;2022-10-28T04:13:00;15.00;99.90
3788;DHT22;1909;53.046;8.276;2022-10-28T04:15:28;15.00;99.90
3788;DHT22;1909;53.046;8.276;2022-10-28T04:17:55;15.00;99.90
3788;DHT22;1909;53.046;8.276;2022-10-28T04:20:23;15.00;99.90
3788;DHT22;1909;53.046;8.276;2022-10-28T04:22:50;15.00;99.90
3788;DHT22;1909;53.046;8.276;2022-10-28T04:25:19;15.00;99.90
3788;DHT22;1909;53.046;8.276;2022-10-28T04:27:46;15.00;99.90
3788;DHT22;1909;53.046;8.276;2022-10-28T04:30:13;15.00;99.90
3788;DHT22;1909;53.046;8.276;2022-10-28T04:32:42;15.00;99.90
3788;DHT22;1909;53.046;8.276;2022-10-28T04:35:10;14.90;99.90
3788;DHT22;1909;53.046;8.276;2022-10-28T04:37:37;14.90;99.90
3788;DHT22;1909;53.046;8.276;2022-10-28T04:40:05;15.00;99.90
3788;DHT22;1909;53.046;8.276;2022-10-28T04:42:32;15.00;99.90
3788;DHT22;1909;53.046;8.276;2022-10-28T04:44:58;15.00;99.90
3788;DHT22;1909;53.046;8.276;2022-10-28T04:47:25;15.00;99.90
3788;DHT22;1909;53.046;8.276;2022-10-28T04:49:53;14.90;99.90
3788;DHT22;1909;53.046;8.276;2022-10-28T04:52:20;14.90;99.90
3788;DHT22;1909;53.046;8.276;2022-10-28T04:54:46;14.90;99.90
3788;DHT22;1909;53.046;8.276;2022-10-28T04:57:13;14.90;99.90
3788;DHT22;1909;53.046;8.276;2022-10-28T04:59:40;14.90;99.90
3788;DHT22;1909;53.046;8.276;2022-10-28T05:02:06;14.90;99.90
3788;DHT22;1909;53.046;8.276;2022-10-28T05:04:33;14.90;99.90
3788;DHT22;1909;53.046;8.276;2022-10-28T05:07:01;14.90;99.90
3788;DHT22;1909;53.046;8.276;2022-10-28T05:09:28;14.90;99.90
3788;DHT22;1909;53.046;8.276;2022-10-28T05:11:54;14.90;99.90
3788;DHT22;1909;53.046;8.276;2022-10-28T05:14:21;14.90;99.90
3788;DHT22;1909;53.046;8.276;2022-10-28T05:16:48;14.90;99.90
3788;DHT22;1909;53.046;8.276;2022-10-28T05:19:14;14.80;99.90
3788;DHT22;1909;53.046;8.276;2022-10-28T05:21:41;14.80;99.90
3788;DHT22;1909;53.046;8.276;2022-10-28T05:24:09;14.80;99.90
3788;DHT22;1909;53.046;8.276;2022-10-28T05:26:36;14.80;99.90
3788;DHT22;1909;53.046;8.276;2022-10-28T05:29:03;14.80;99.90
3788;DHT22;1909;53.046;8.276;2022-10-28T05:31:29;14.80;99.90
3788;DHT22;1909;53.046;8.276;2022-10-28T05:33:56;14.80;99.90
3788;DHT22;1909;53.046;8.276;2022-10-28T05:36:23;14.80;99.90
3788;DHT22;1909;53.046;8.276;2022-10-28T05:38:49;14.80;99.90
3788;DHT22;1909;53.046;8.276;2022-10-28T05:41:17;14.70;99.90
3788;DHT22;1909;53.046;8.276;2022-10-28T05:43:44;14.80;99.90
3788;DHT22;1909;53.046;8.276;2022-10-28T05:46:11;14.70;99.90
3788;DHT22;1909;53.046;8.276;2022-10-28T05:48:37;14.80;99.90
3788;DHT22;1909;53.046;8.276;2022-10-28T05:51:04;14.70;99.90
3788;DHT22;1909;53.046;8.276;2022-10-28T05:53:31;14.70;99.90
3788;DHT22;1909;53.046;8.276;2022-10-28T05:55:57;14.70;99.90
3788;DHT22;1909;53.046;8.276;2022-10-28T05:58:25;14.70;99.90
3788;DHT22;1909;53.046;8.276;2022-10-28T06:00:52;14.70;99.90
3788;DHT22;1909;53.046;8.276;2022-10-28T06:03:19;14.70;99.90
3788;DHT22;1909;53.046;8.276;2022-10-28T06:05:46;14.70;99.90
3788;DHT22;1909;53.046;8.276;2022-10-28T06:08:13;14.70;99.90
3788;DHT22;1909;53.046;8.276;2022-10-28T06:10:40;14.70;99.90
3788;DHT22;1909;53.046;8.276;2022-10-28T06:13:07;14.70;99.90
3788;DHT22;1909;53.046;8.276;2022-10-28T06:15:36;14.70;99.90
3788;DHT22;1909;53.046;8.276;2022-10-28T06:18:02;14.60;99.90
3788;DHT22;1909;53.046;8.276;2022-10-28T06:20:29;14.60;99.90
3788;DHT22;1909;53.046;8.276;2022-10-28T06:22:56;14.50;99.90
3788;DHT22;1909;53.046;8.276;2022-10-28T06:25:24;14.60;99.90
3788;DHT22;1909;53.046;8.276;2022-10-28T06:27:54;14.60;99.90
3788;DHT22;1909;53.046;8.276;2022-10-28T06:30:22;14.60;99.90
3788;DHT22;1909;53.046;8.276;2022-10-28T06:32:50;14.60;99.90
3788;DHT22;1909;53.046;8.276;2022-10-28T06:35:17;14.60;99.90
3788;DHT22;1909;53.046;8.276;2022-10-28T06:37:43;14.50;99.90
3788;DHT22;1909;53.046;8.276;2022-10-28T06:40:10;14.60;99.90
3788;DHT22;1909;53.046;8.276;2022-10-28T06:42:37;14.50;99.90
3788;DHT22;1909;53.046;8.276;2022-10-28T06:45:05;14.60;99.90
3788;DHT22;1909;53.046;8.276;2022-10-28T06:47:32;14.50;99.90
3788;DHT22;1909;53.046;8.276;2022-10-28T06:50:00;14.50;99.90
3788;DHT22;1909;53.046;8.276;2022-10-28T06:52:26;14.50;99.90
3788;DHT22;1909;53.046;8.276;2022-10-28T06:54:53;14.50;99.90
3788;DHT22;1909;53.046;8.276;2022-10-28T06:57:20;14.60;99.90
3788;DHT22;1909;53.046;8.276;2022-10-28T06:59:47;14.50;99.90
3788;DHT22;1909;53.046;8.276;2022-10-28T07:02:15;14.50;99.90
3788;DHT22;1909;53.046;8.276;2022-10-28T07:04:41;14.50;99.90
3788;DHT22;1909;53.046;8.276;2022-10-28T07:07:10;14.50;99.90
3788;DHT22;1909;53.046;8.276;2022-10-28T07:09:36;14.50;99.90
3788;DHT22;1909;53.046;8.276;2022-10-28T07:12:04;14.50;99.90
3788;DHT22;1909;53.046;8.276;2022-10-28T07:14:31;14.50;99.90
3788;DHT22;1909;53.046;8.276;2022-10-28T07:16:59;14.50;99.90
3788;DHT22;1909;53.046;8.276;2022-10-28T07:19:26;14.50;99.90
3788;DHT22;1909;53.046;8.276;2022-10-28T07:21:53;14.50;99.90
3788;DHT22;1909;53.046;8.276;2022-10-28T07:24:21;14.50;99.90
3788;DHT22;1909;53.046;8.276;2022-10-28T07:26:47;14.50;99.90
3788;DHT22;1909;53.046;8.276;2022-10-28T07:29:15;14.50;99.90
3788;DHT22;1909;53.046;8.276;2022-10-28T07:31:41;14.50;99.90
3788;DHT22;1909;53.046;8.276;2022-10-28T07:34:08;14.50;99.90
3788;DHT22;1909;53.046;8.276;2022-10-28T07:36:35;14.50;99.90
3788;DHT22;1909;53.046;8.276;2022-10-28T07:39:02;14.60;99.90
3788;DHT22;1909;53.046;8.276;2022-10-28T07:41:30;14.50;99.90
3788;DHT22;1909;53.046;8.276;2022-10-28T07:43:57;14.60;99.90
3788;DHT22;1909;53.046;8.276;2022-10-28T07:46:24;14.60;99.90
3788;DHT22;1909;53.046;8.276;2022-10-28T07:48:50;14.50;99.90
3788;DHT22;1909;53.046;8.276;2022-10-28T07:51:17;14.60;99.90
3788;DHT22;1909;53.046;8.276;2022-10-28T07:53:44;14.60;99.90
3788;DHT22;1909;53.046;8.276;2022-10-28T07:56:11;14.60;99.90
3788;DHT22;1909;53.046;8.276;2022-10-28T07:58:42;14.60;99.90
3788;DHT22;1909;53.046;8.276;2022-10-28T08:01:13;14.70;99.90
3788;DHT22;1909;53.046;8.276;2022-10-28T08:03:40;14.70;99.90
3788;DHT22;1909;53.046;8.276;2022-10-28T08:06:12;14.70;99.90
3788;DHT22;1909;53.046;8.276;2022-10-28T08:08:41;14.70;99.90
3788;DHT22;1909;53.046;8.276;2022-10-28T08:11:09;14.70;99.90
3788;DHT22;1909;53.046;8.276;2022-10-28T08:13:35;14.80;99.90
3788;DHT22;1909;53.046;8.276;2022-10-28T08:16:04;14.80;99.90
3788;DHT22;1909;53.046;8.276;2022-10-28T08:18:31;14.80;99.90
3788;DHT22;1909;53.046;8.276;2022-10-28T08:20:58;14.80;99.90
3788;DHT22;1909;53.046;8.276;2022-10-28T08:23:25;15.00;99.90
3788;DHT22;1909;53.046;8.276;2022-10-28T08:25:52;14.90;99.90
3788;DHT22;1909;53.046;8.276;2022-10-28T08:28:19;14.90;99.90
3788;DHT22;1909;53.046;8.276;2022-10-28T08:30:45;15.00;99.90
3788;DHT22;1909;53.046;8.276;2022-10-28T08:33:14;15.10;99.90
3788;DHT22;1909;53.046;8.276;2022-10-28T08:35:40;15.20;99.90
3788;DHT22;1909;53.046;8.276;2022-10-28T08:38:08;15.20;99.90
3788;DHT22;1909;53.046;8.276;2022-10-28T08:40:39;15.10;99.90
3788;DHT22;1909;53.046;8.276;2022-10-28T08:43:20;15.20;99.90
3788;DHT22;1909;53.046;8.276;2022-10-28T08:45:57;15.20;99.90
3788;DHT22;1909;53.046;8.276;2022-10-28T08:48:30;15.30;99.90
3788;DHT22;1909;53.046;8.276;2022-10-28T08:51:02;15.30;99.90
3788;DHT22;1909;53.046;8.276;2022-10-28T08:53:35;15.30;99.90
3788;DHT22;1909;53.046;8.276;2022-10-28T08:56:12;15.40;99.90
3788;DHT22;1909;53.046;8.276;2022-10-28T08:58:42;15.40;99.90
3788;DHT22;1909;53.046;8.276;2022-10-28T09:01:16;15.60;99.90
3788;DHT22;1909;53.046;8.276;2022-10-28T09:03:49;15.50;99.90
3788;DHT22;1909;53.046;8.276;2022-10-28T09:06:17;15.80;99.90
3788;DHT22;1909;53.046;8.276;2022-10-28T09:08:46;15.60;99.90
3788;DHT22;1909;53.046;8.276;2022-10-28T09:14:14;15.90;99.90
3788;DHT22;1909;53.046;8.276;2022-10-28T09:16:45;16.00;99.90
3788;DHT22;1909;53.046;8.276;2022-10-28T09:19:27;16.10;99.90
3788;DHT22;1909;53.046;8.276;2022-10-28T09:22:07;16.30;99.90
3788;DHT22;1909;53.046;8.276;2022-10-28T09:41:36;16.40;99.90
3788;DHT22;1909;53.046;8.276;2022-10-28T09:44:07;16.40;99.90
3788;DHT22;1909;53.046;8.276;2022-10-28T09:46:37;16.70;99.90
3788;DHT22;1909;53.046;8.276;2022-10-28T09:49:08;16.60;99.90
3788;DHT22;1909;53.046;8.276;2022-10-28T09:51:42;16.50;99.90
3788;DHT22;1909;53.046;8.276;2022-10-28T09:54:10;16.80;99.90
3788;DHT22;1909;53.046;8.276;2022-10-28T09:56:40;16.90;99.90
3788;DHT22;1909;53.046;8.276;2022-10-28T09:59:11;17.10;99.90
3788;DHT22;1909;53.046;8.276;2022-10-28T10:01:40;17.20;99.90
3788;DHT22;1909;53.046;8.276;2022-10-28T10:04:16;17.20;99.90
3788;DHT22;1909;53.046;8.276;2022-10-28T10:06:44;17.10;99.90
3788;DHT22;1909;53.046;8.276;2022-10-28T10:09:16;17.20;99.90
3788;DHT22;1909;53.046;8.276;2022-10-28T10:11:48;17.30;99.90
3788;DHT22;1909;53.046;8.276;2022-10-28T10:14:18;17.20;99.90
3788;DHT22;1909;53.046;8.276;2022-10-28T10:16:50;17.40;99.90
3788;DHT22;1909;53.046;8.276;2022-10-28T10:19:18;17.40;99.90
3788;DHT22;1909;53.046;8.276;2022-10-28T10:21:46;17.50;99.90
3788;DHT22;1909;53.046;8.276;2022-10-28T10:24:30;17.90;99.90
3788;DHT22;1909;53.046;8.276;2022-10-28T10:27:03;17.60;99.90
3788;DHT22;1909;53.046;8.276;2022-10-28T10:29:47;17.50;99.90
3788;DHT22;1909;53.046;8.276;2022-10-28T10:32:17;17.70;99.90
3788;DHT22;1909;53.046;8.276;2022-10-28T10:34:48;17.70;99.90
3788;DHT22;1909;53.046;8.276;2022-10-28T10:37:20;18.10;99.90
3788;DHT22;1909;53.046;8.276;2022-10-28T10:40:15;17.90;99.90
3788;DHT22;1909;53.046;8.276;2022-10-28T10:42:44;17.90;99.90
3788;DHT22;1909;53.046;8.276;2022-10-28T10:45:32;18.10;99.90
3788;DHT22;1909;53.046;8.276;2022-10-28T10:48:09;18.30;99.90
3788;DHT22;1909;53.046;8.276;2022-10-28T10:50:37;18.20;99.90
3788;DHT22;1909;53.046;8.276;2022-10-28T10:53:04;18.20;99.90
3788;DHT22;1909;53.046;8.276;2022-10-28T10:55:34;18.60;99.90
3788;DHT22;1909;53.046;8.276;2022-10-28T10:58:04;18.80;99.90
3788;DHT22;1909;53.046;8.276;2022-10-28T11:00:35;19.30;99.90
3788;DHT22;1909;53.046;8.276;2022-10-28T11:03:03;18.90;99.90
3788;DHT22;1909;53.046;8.276;2022-10-28T11:05:31;19.10;99.90
3788;DHT22;1909;53.046;8.276;2022-10-28T11:07:59;18.50;99.90
3788;DHT22;1909;53.046;8.276;2022-10-28T11:10:30;19.10;99.90
3788;DHT22;1909;53.046;8.276;2022-10-28T11:13:03;19.40;99.90
3788;DHT22;1909;53.046;8.276;2022-10-28T11:15:30;19.10;99.90
3788;DHT22;1909;53.046;8.276;2022-10-28T11:18:01;19.00;99.90
3788;DHT22;1909;53.046;8.276;2022-10-28T11:20:36;19.10;99.90
3788;DHT22;1909;53.046;8.276;2022-10-28T11:23:22;19.10;99.90
3788;DHT22;1909;53.046;8.276;2022-10-28T11:25:52;19.00;99.90
3788;DHT22;1909;53.046;8.276;2022-10-28T11:28:33;19.30;99.90
3788;DHT22;1909;53.046;8.276;2022-10-28T11:31:14;19.20;99.90
3788;DHT22;1909;53.046;8.276;2022-10-28T11:33:49;19.30;99.90
3788;DHT22;1909;53.046;8.276;2022-10-28T11:36:22;19.20;99.90
3788;DHT22;1909;53.046;8.276;2022-10-28T11:39:03;19.60;99.90
3788;DHT22;1909;53.046;8.276;2022-10-28T11:41:41;19.30;99.90
3788;DHT22;1909;53.046;8.276;2022-10-28T11:44:20;19.30;99.90
3788;DHT22;1909;53.046;8.276;2022-10-28T11:46:56;19.00;99.90
3788;DHT22;1909;53.046;8.276;2022-10-28T11:49:55;19.40;99.90
3788;DHT22;1909;53.046;8.276;2022-10-28T11:52:35;19.30;99.90
3788;DHT22;1909;53.046;8.276;2022-10-28T11:55:17;19.30;99.90
3788;DHT22;1909;53.046;8.276;2022-10-28T11:57:54;19.60;99.90
3788;DHT22;1909;53.046;8.276;2022-10-28T12:00:42;19.60;99.90
3788;DHT22;1909;53.046;8.276;2022-10-28T12:03:26;19.90;99.90
3788;DHT22;1909;53.046;8.276;2022-10-28T12:06:04;20.00;99.90
3788;DHT22;1909;53.046;8.276;2022-10-28T12:08:41;19.70;99.90
3788;DHT22;1909;53.046;8.276;2022-10-28T12:11:21;19.90;99.90
3788;DHT22;1909;53.046;8.276;2022-10-28T12:13:55;20.20;99.90
3788;DHT22;1909;53.046;8.276;2022-10-28T12:16:28;20.00;99.90
3788;DHT22;1909;53.046;8.276;2022-10-28T12:18:59;19.90;99.90
3788;DHT22;1909;53.046;8.276;2022-10-28T12:21:30;20.00;99.90
3788;DHT22;1909;53.046;8.276;2022-10-28T12:23:58;19.80;99.90
3788;DHT22;1909;53.046;8.276;2022-10-28T12:26:32;19.60;99.90
3788;DHT22;1909;53.046;8.276;2022-10-28T12:29:02;19.50;99.90
3788;DHT22;1909;53.046;8.276;2022-10-28T12:31:36;19.40;99.90
3788;DHT22;1909;53.046;8.276;2022-10-28T12:34:09;19.60;99.90
3788;DHT22;1909;53.046;8.276;2022-10-28T12:36:40;19.70;99.90
3788;DHT22;1909;53.046;8.276;2022-10-28T12:39:14;19.80;99.90
3788;DHT22;1909;53.046;8.276;2022-10-28T12:41:49;19.90;99.90
3788;DHT22;1909;53.046;8.276;2022-10-28T12:44:20;19.80;99.90
3788;DHT22;1909;53.046;8.276;2022-10-28T12:46:56;19.80;99.90
3788;DHT22;1909;53.046;8.276;2022-10-28T12:49:34;19.90;99.90
3788;DHT22;1909;53.046;8.276;2022-10-28T12:52:11;20.30;99.90
3788;DHT22;1909;53.046;8.276;2022-10-28T12:54:49;20.30;99.90
3788;DHT22;1909;53.046;8.276;2022-10-28T12:57:20;19.90;99.90
3788;DHT22;1909;53.046;8.276;2022-10-28T12:59:52;19.80;99.90
3788;DHT22;1909;53.046;8.276;2022-10-28T13:02:25;20.10;99.90
3788;DHT22;1909;53.046;8.276;2022-10-28T13:04:54;20.00;99.90
3788;DHT22;1909;53.046;8.276;2022-10-28T13:07:47;20.00;99.90
3788;DHT22;1909;53.046;8.276;2022-10-28T13:10:23;20.00;99.90
3788;DHT22;1909;53.046;8.276;2022-10-28T13:13:03;20.00;99.90
3788;DHT22;1909;53.046;8.276;2022-10-28T13:15:50;20.00;99.90
3788;DHT22;1909;53.046;8.276;2022-10-28T13:21:22;20.20;99.90
3788;DHT22;1909;53.046;8.276;2022-10-28T13:23:54;20.10;99.90
3788;DHT22;1909;53.046;8.276;2022-10-28T13:26:26;20.10;99.90
3788;DHT22;1909;53.046;8.276;2022-10-28T13:28:56;20.10;99.90
3788;DHT22;1909;53.046;8.276;2022-10-28T13:31:35;20.00;99.90
3788;DHT22;1909;53.046;8.276;2022-10-28T13:34:05;20.00;99.90
3788;DHT22;1909;53.046;8.276;2022-10-28T13:36:34;20.10;99.90
3788;DHT22;1909;53.046;8.276;2022-10-28T13:39:06;20.10;99.90
3788;DHT22;1909;53.046;8.276;2022-10-28T13:41:45;20.30;99.90
3788;DHT22;1909;53.046;8.276;2022-10-28T13:44:30;20.30;99.90
3788;DHT22;1909;53.046;8.276;2022-10-28T13:47:27;20.30;99.90
3788;DHT22;1909;53.046;8.276;2022-10-28T13:53:56;20.10;99.90
3788;DHT22;1909;53.046;8.276;2022-10-28T13:56:45;20.30;99.90
3788;DHT22;1909;53.046;8.276;2022-10-28T13:59:20;20.10;99.90
3788;DHT22;1909;53.046;8.276;2022-10-28T14:01:51;20.20;99.90
3788;DHT22;1909;53.046;8.276;2022-10-28T14:04:24;20.30;99.90
3788;DHT22;1909;53.046;8.276;2022-10-28T14:07:20;20.20;99.90
3788;DHT22;1909;53.046;8.276;2022-10-28T14:09:52;20.30;99.90
3788;DHT22;1909;53.046;8.276;2022-10-28T14:12:23;20.30;99.90
3788;DHT22;1909;53.046;8.276;2022-10-28T14:15:19;20.40;99.90
3788;DHT22;1909;53.046;8.276;2022-10-28T14:17:49;20.30;99.90
3788;DHT22;1909;53.046;8.276;2022-10-28T14:20:32;20.40;99.90
3788;DHT22;1909;53.046;8.276;2022-10-28T14:26:06;20.40;99.90
3788;DHT22;1909;53.046;8.276;2022-10-28T14:28:53;20.30;99.90
3788;DHT22;1909;53.046;8.276;2022-10-28T14:31:41;20.40;99.90
3788;DHT22;1909;53.046;8.276;2022-10-28T14:34:35;20.30;99.90
3788;DHT22;1909;53.046;8.276;2022-10-28T14:37:29;20.50;99.90
3788;DHT22;1909;53.046;8.276;2022-10-28T14:40:18;20.50;99.90
3788;DHT22;1909;53.046;8.276;2022-10-28T14:42:57;20.40;99.90
3788;DHT22;1909;53.046;8.276;2022-10-28T14:45:32;20.50;99.90
3788;DHT22;1909;53.046;8.276;2022-10-28T14:48:27;20.40;99.90
3788;DHT22;1909;53.046;8.276;2022-10-28T14:50:56;20.40;99.90
3788;DHT22;1909;53.046;8.276;2022-10-28T14:53:29;20.40;99.90
3788;DHT22;1909;53.046;8.276;2022-10-28T14:56:00;20.50;99.90
3788;DHT22;1909;53.046;8.276;2022-10-28T14:58:34;20.40;99.90
3788;DHT22;1909;53.046;8.276;2022-10-28T15:01:20;20.40;99.90
3788;DHT22;1909;53.046;8.276;2022-10-28T15:03:50;20.40;99.90
3788;DHT22;1909;53.046;8.276;2022-10-28T15:06:22;20.40;99.90
3788;DHT22;1909;53.046;8.276;2022-10-28T15:08:50;20.40;99.90
3788;DHT22;1909;53.046;8.276;2022-10-28T15:11:17;20.50;99.90
3788;DHT22;1909;53.046;8.276;2022-10-28T15:13:48;20.50;99.90
3788;DHT22;1909;53.046;8.276;2022-10-28T15:16:21;20.40;99.90
3788;DHT22;1909;53.046;8.276;2022-10-28T15:18:50;20.60;99.90
3788;DHT22;1909;53.046;8.276;2022-10-28T15:21:19;20.70;99.90
3788;DHT22;1909;53.046;8.276;2022-10-28T15:23:58;20.70;99.90
3788;DHT22;1909;53.046;8.276;2022-10-28T15:26:25;20.50;99.90
3788;DHT22;1909;53.046;8.276;2022-10-28T15:28:54;20.60;99.90
3788;DHT22;1909;53.046;8.276;2022-10-28T15:31:21;20.50;99.90
3788;DHT22;1909;53.046;8.276;2022-10-28T15:33:48;20.50;99.90
3788;DHT22;1909;53.046;8.276;2022-10-28T15:36:16;20.40;99.90
3788;DHT22;1909;53.046;8.276;2022-10-28T15:38:44;20.60;99.90
3788;DHT22;1909;53.046;8.276;2022-10-28T15:41:45;20.60;99.90
3788;DHT22;1909;53.046;8.276;2022-10-28T15:44:26;20.70;99.90
3788;DHT22;1909;53.046;8.276;2022-10-28T15:46:56;20.80;99.90
3788;DHT22;1909;53.046;8.276;2022-10-28T15:49:32;20.70;99.90
3788;DHT22;1909;53.046;8.276;2022-10-28T15:52:26;20.80;99.90
3788;DHT22;1909;53.046;8.276;2022-10-28T15:54:56;20.90;99.90
3788;DHT22;1909;53.046;8.276;2022-10-28T15:57:25;20.90;99.90
3788;DHT22;1909;53.046;8.276;2022-10-28T16:00:20;20.80;99.90
3788;DHT22;1909;53.046;8.276;2022-10-28T16:02:52;20.80;99.90
3788;DHT22;1909;53.046;8.276;2022-10-28T16:05:45;20.70;99.90
3788;DHT22;1909;53.046;8.276;2022-10-28T16:08:17;20.70;99.90
3788;DHT22;1909;53.046;8.276;2022-10-28T16:10:47;20.60;99.90
3788;DHT22;1909;53.046;8.276;2022-10-28T16:13:17;20.50;99.90
3788;DHT22;1909;53.046;8.276;2022-10-28T16:15:50;20.50;99.90
3788;DHT22;1909;53.046;8.276;2022-10-28T16:18:18;20.60;99.90
3788;DHT22;1909;53.046;8.276;2022-10-28T16:20:45;20.60;99.90
3788;DHT22;1909;53.046;8.276;2022-10-28T16:23:15;20.60;99.90
3788;DHT22;1909;53.046;8.276;2022-10-28T16:25:42;20.50;99.90
3788;DHT22;1909;53.046;8.276;2022-10-28T16:28:17;20.50;99.90
3788;DHT22;1909;53.046;8.276;2022-10-28T16:30:44;20.50;99.90
3788;DHT22;1909;53.046;8.276;2022-10-28T16:33:12;20.60;99.90
3788;DHT22;1909;53.046;8.276;2022-10-28T16:35:39;20.60;99.90
3788;DHT22;1909;53.046;8.276;2022-10-28T16:38:09;20.50;99.90
3788;DHT22;1909;53.046;8.276;2022-10-28T16:40:37;20.60;99.90
3788;DHT22;1909;53.046;8.276;2022-10-28T16:43:04;20.50;99.90
3788;DHT22;1909;53.046;8.276;2022-10-28T16:45:30;20.40;99.90
3788;DHT22;1909;53.046;8.276;2022-10-28T16:47:57;20.30;99.90
3788;DHT22;1909;53.046;8.276;2022-10-28T16:50:25;20.40;99.90
3788;DHT22;1909;53.046;8.276;2022-10-28T16:52:52;20.30;99.90
3788;DHT22;1909;53.046;8.276;2022-10-28T16:55:20;20.40;99.90
3788;DHT22;1909;53.046;8.276;2022-10-28T16:57:47;20.30;99.90
3788;DHT22;1909;53.046;8.276;2022-10-28T17:00:14;20.30;99.90